McClure, South Dakota
Current Conditions -  °F | °C
As of 3:53 AM on Sunday 26 Oct 2014 (Local Time) from KPIR Reporting Station
Clear Clear  
Wind Chill: 51°   Ceiling: Unl
Heat Index: 51°   Visibility: 10mi
Dew Point: 33°   Wind: 15mph
Humidity: 50%   Direction: 140°SE
Pressure: 29.81"   Gusts: NA
Location:  44.0206°N, 100.306°W
Report Text: KPIR 260853Z AUTO 14013KT 10SM CLR 11/01 A2981 RMK AO2 SLP090 T01060006 56026
Loading
Personal Weather Stations






























Interactive Weather Map
Tropical Storm Tracking
New forecast layout! Learn more

10-Day Weather Forecast

Advertisements
Track Severe Weather on mobile